Time;durP1;ratioP1;P1;durP2;ratioP2;P2;SDS_P1;SDS_P2;PMS_P1;PMS_P2;Temp;Humidity;BMP_temperature;BMP_pressure;BME280_temperature;BME280_humidity;BME280_pressure;Samples;Min_cycle;Max_cycle;Signal;HPM_P1;HPM_P2
2023/03/19 00:01:02;;;;;;;8.40;7.50;;;11.00;99.90;;;10.51;80.18;100620.44;5055713;28;20248;-72
2023/03/19 00:03:34;;;;;;;8.40;7.53;;;11.00;99.90;;;10.51;79.78;100615.09;5055637;28;20194;-72
2023/03/19 00:06:08;;;;;;;9.20;7.10;;;11.10;99.90;;;10.52;79.82;100613.25;5055545;28;20226;-73
2023/03/19 00:08:40;;;;;;;9.07;7.10;;;11.00;99.90;;;10.44;80.22;100614.09;5055208;28;20594;-72
2023/03/19 00:11:14;;;;;;;9.90;7.27;;;11.00;99.90;;;10.46;80.30;100617.44;5055538;28;20198;-72
2023/03/19 00:13:46;;;;;;;9.43;7.90;;;11.00;99.90;;;10.45;80.72;100626.47;5055475;28;20252;-72
2023/03/19 00:16:18;;;;;;;8.77;7.57;;;11.00;99.90;;;10.44;80.59;100624.81;5055031;28;20221;-72
2023/03/19 00:18:50;;;;;;;8.63;7.43;;;11.00;99.90;;;10.42;80.87;100618.75;5055363;28;20191;-72
2023/03/19 00:21:23;;;;;;;8.70;7.80;;;10.90;99.90;;;10.40;80.62;100618.09;5055006;28;20603;-72
2023/03/19 00:23:59;;;;;;;8.83;7.73;;;10.90;99.90;;;10.41;80.70;100625.09;5054888;28;20681;-72
2023/03/19 00:26:33;;;;;;;8.40;7.60;;;10.90;99.90;;;10.40;80.02;100619.94;5055198;28;20194;-72
2023/03/19 00:29:07;;;;;;;10.60;8.43;;;10.90;99.90;;;10.35;80.61;100625.75;5054455;28;20194;-72
2023/03/19 00:31:40;;;;;;;9.50;7.97;;;10.90;99.90;;;10.30;80.65;100620.06;5055120;28;20186;-72
2023/03/19 00:34:13;;;;;;;10.37;8.07;;;10.80;99.90;;;10.33;80.97;100629.59;5054677;28;20689;-72
2023/03/19 00:36:47;;;;;;;8.80;7.53;;;10.80;99.90;;;10.36;80.72;100631.97;5054914;28;20214;-72
2023/03/19 00:39:20;;;;;;;8.93;8.13;;;10.90;99.90;;;10.32;80.50;100630.59;5054985;28;20212;-72
2023/03/19 00:41:52;;;;;;;10.20;9.20;;;10.90;99.90;;;10.25;80.96;100619.69;5054918;28;20199;-72
2023/03/19 00:44:24;;;;;;;12.70;10.50;;;10.80;99.90;;;10.22;81.28;100620.03;5054817;28;20237;-72
2023/03/19 00:46:56;;;;;;;14.80;13.30;;;10.70;99.90;;;10.21;81.25;100626.38;5054843;28;20187;-72
2023/03/19 00:49:28;;;;;;;15.87;12.63;;;10.80;99.90;;;10.21;81.41;100621.00;5054496;28;20639;-72
2023/03/19 00:52:01;;;;;;;14.47;12.73;;;10.70;99.90;;;10.22;81.27;100617.34;5054683;28;20198;-72
2023/03/19 00:54:33;;;;;;;13.70;12.20;;;10.80;99.90;;;10.23;81.04;100610.16;5054602;28;20226;-72
2023/03/19 00:57:05;;;;;;;13.87;11.90;;;10.80;99.90;;;10.20;80.86;100618.53;5054258;28;20796;-72
2023/03/19 00:59:37;;;;;;;14.33;12.40;;;10.70;99.90;;;10.14;80.96;100623.50;5054564;28;20194;-72
2023/03/19 01:02:08;;;;;;;14.17;12.23;;;10.70;99.90;;;10.07;81.62;100619.75;5054245;28;20670;-72
2023/03/19 01:04:40;;;;;;;18.80;12.50;;;10.60;99.90;;;10.03;81.55;100612.22;5054424;28;20230;-72
2023/03/19 01:07:14;;;;;;;14.80;12.83;;;10.50;99.90;;;9.99;81.73;100614.38;5054389;28;20190;-72
2023/03/19 01:09:46;;;;;;;14.23;11.97;;;10.50;99.90;;;9.97;81.83;100618.19;5054377;28;20190;-72
2023/03/19 01:12:18;;;;;;;13.07;11.73;;;10.50;99.90;;;9.95;81.75;100613.03;5054044;28;20643;-72
2023/03/19 01:14:52;;;;;;;13.87;12.33;;;10.50;99.90;;;9.86;81.61;100613.97;5053789;28;20230;-72
2023/03/19 01:17:24;;;;;;;24.93;13.23;;;10.40;99.90;;;9.86;81.92;100613.13;5053863;28;20679;-72
2023/03/19 01:19:56;;;;;;;14.37;12.87;;;10.40;99.90;;;9.80;81.88;100613.75;5053881;28;20244;-72
2023/03/19 01:22:29;;;;;;;14.77;13.07;;;10.30;99.90;;;9.74;81.60;100622.41;5054186;28;20194;-72
2023/03/19 01:25:01;;;;;;;18.07;13.03;;;10.30;99.90;;;9.69;81.47;100621.03;5053688;28;20601;-72
2023/03/19 01:27:33;;;;;;;14.97;12.47;;;10.20;99.90;;;9.66;81.54;100608.00;5054044;28;20602;-72
2023/03/19 01:30:07;;;;;;;16.03;12.80;;;10.20;99.90;;;9.62;81.53;100617.31;5054015;28;20187;-72
2023/03/19 01:32:39;;;;;;;14.23;12.70;;;10.20;99.90;;;9.57;81.35;100610.78;5053944;28;20189;-72
2023/03/19 01:35:13;;;;;;;17.30;12.60;;;10.10;99.90;;;9.55;81.14;100604.75;5053843;28;20226;-72
2023/03/19 01:37:45;;;;;;;13.60;12.37;;;10.10;99.90;;;9.45;81.70;100612.84;5053832;28;20206;-72
2023/03/19 01:40:17;;;;;;;14.23;12.73;;;10.00;99.90;;;9.37;82.51;100615.50;5053361;28;20187;-72
2023/03/19 01:42:57;;;;;;;14.87;12.97;;;9.90;99.90;;;9.31;82.32;100613.44;5053437;28;20187;-72
2023/03/19 01:45:35;;;;;;;14.00;12.60;;;9.90;99.90;;;9.34;82.09;100615.81;5053704;28;20225;-72
2023/03/19 01:48:12;;;;;;;13.20;11.70;;;9.90;99.90;;;9.37;81.51;100609.31;5053749;28;20204;-72
2023/03/19 01:50:49;;;;;;;14.07;12.13;;;9.90;99.90;;;9.36;80.69;100605.78;5053684;28;20240;-72
2023/03/19 01:53:27;;;;;;;13.17;10.93;;;9.90;99.90;;;9.44;80.40;100608.53;5053377;28;20297;-72
2023/03/19 01:56:08;;;;;;;13.53;11.97;;;10.00;99.90;;;9.32;79.52;100611.59;5053081;28;20596;-72
2023/03/19 01:58:41;;;;;;;14.63;12.20;;;9.90;99.90;;;9.13;80.22;100613.47;5053719;28;20649;-72
2023/03/19 02:01:13;;;;;;;12.83;11.57;;;9.70;99.90;;;9.00;80.83;100612.19;5053372;28;20186;-72
2023/03/19 02:03:49;;;;;;;13.77;12.37;;;9.60;99.90;;;9.04;80.23;100609.03;5052960;28;20657;-72
2023/03/19 02:06:23;;;;;;;13.47;11.30;;;9.60;99.90;;;9.01;80.25;100611.16;5053299;28;20182;-73
2023/03/19 02:08:58;;;;;;;13.60;12.23;;;9.60;99.90;;;8.92;80.44;100609.41;5053343;28;20194;-72
2023/03/19 02:11:30;;;;;;;13.87;12.37;;;9.50;99.90;;;8.98;79.36;100609.66;5053294;28;20272;-73
2023/03/19 02:14:02;;;;;;;12.97;11.43;;;9.60;99.90;;;8.83;79.61;100605.00;5053062;28;20186;-73
2023/03/19 02:16:34;;;;;;;14.53;12.90;;;9.40;99.90;;;8.78;81.07;100610.78;5052843;28;20229;-73
2023/03/19 02:19:08;;;;;;;13.93;12.40;;;9.30;99.90;;;8.87;80.67;100609.06;5052876;28;20198;-72
2023/03/19 02:21:40;;;;;;;14.60;13.10;;;9.40;99.90;;;8.82;80.42;100606.00;5052883;28;20583;-72
2023/03/19 02:24:17;;;;;;;13.87;12.20;;;9.40;99.90;;;8.82;80.56;100600.66;5053080;28;20233;-72
2023/03/19 02:26:52;;;;;;;14.23;12.77;;;9.40;99.90;;;8.73;81.57;100606.91;5053141;28;20182;-73
2023/03/19 02:29:24;;;;;;;14.97;13.23;;;9.30;99.90;;;8.77;82.04;100608.28;5053085;28;20212;-73
2023/03/19 02:31:56;;;;;;;14.73;13.23;;;9.30;99.90;;;8.75;82.40;100607.59;5053100;28;20195;-73
2023/03/19 02:34:41;;;;;;;14.53;13.03;;;9.30;99.90;;;8.73;82.78;100602.41;5052740;28;20222;-72
2023/03/19 02:37:19;;;;;;;14.50;13.10;;;9.30;99.90;;;8.71;83.15;100604.38;5052901;28;20214;-72
2023/03/19 02:39:59;;;;;;;16.27;14.57;;;9.30;99.90;;;8.70;83.67;100608.03;5053033;28;20202;-72
2023/03/19 02:42:33;;;;;;;15.50;13.90;;;9.30;99.90;;;8.70;83.46;100608.03;5052640;28;20671;-72
2023/03/19 02:45:06;;;;;;;15.87;14.27;;;9.30;99.90;;;8.68;84.63;100603.84;5052617;28;20230;-73
2023/03/19 02:47:37;;;;;;;15.47;13.87;;;9.30;99.90;;;8.70;84.06;100612.56;5052958;28;20191;-73
2023/03/19 02:50:10;;;;;;;14.13;12.83;;;9.30;99.90;;;8.71;83.55;100603.53;5052884;28;20248;-73
2023/03/19 02:52:42;;;;;;;14.33;12.93;;;9.30;99.90;;;8.64;83.33;100603.31;5054086;28;20591;-73
2023/03/19 02:55:17;;;;;;;15.50;13.93;;;9.20;99.90;;;8.56;83.87;100609.38;5056697;28;20233;-73
2023/03/19 02:57:50;;;;;;;16.30;14.50;;;9.10;99.90;;;8.56;85.13;100606.72;5056340;28;20630;-73
2023/03/19 03:00:24;;;;;;;14.10;12.80;;;9.10;99.90;;;8.55;84.13;100610.41;5056671;28;20201;-73
2023/03/19 03:02:57;;;;;;;15.27;13.47;;;9.00;99.90;;;8.58;84.13;100604.75;5056287;28;20657;-73
2023/03/19 03:05:31;;;;;;;14.10;12.63;;;9.10;99.90;;;8.68;83.17;100604.69;5056199;28;20226;-72
2023/03/19 03:08:03;;;;;;;14.47;12.90;;;9.30;99.90;;;8.66;82.85;100612.00;5056517;28;20190;-72
2023/03/19 03:10:35;;;;;;;13.80;12.20;;;9.30;99.90;;;8.68;82.27;100610.03;5056491;28;20204;-72
2023/03/19 03:13:08;;;;;;;15.70;14.10;;;9.30;99.90;;;8.69;83.66;100614.38;5056478;28;20194;-72
2023/03/19 03:15:40;;;;;;;15.30;13.70;;;9.30;99.90;;;8.71;82.55;100614.22;5055958;28;20237;-72
2023/03/19 03:18:12;;;;;;;13.47;12.07;;;9.30;99.90;;;8.65;82.00;100621.84;5056260;28;20582;-72
2023/03/19 03:20:45;;;;;;;13.33;12.10;;;9.20;99.90;;;8.60;81.62;100617.94;5055941;28;20601;-72
2023/03/19 03:23:17;;;;;;;14.57;12.63;;;9.20;99.90;;;8.63;81.61;100622.97;5057054;28;20213;-72
2023/03/19 03:25:51;;;;;;;14.17;12.33;;;9.20;99.90;;;8.60;82.08;100618.78;5056131;28;20592;-72
2023/03/19 03:28:25;;;;;;;13.60;12.30;;;9.20;99.90;;;8.52;82.58;100626.72;5056148;28;20192;-72
2023/03/19 03:31:01;;;;;;;14.67;13.27;;;9.10;99.90;;;8.46;83.08;100621.94;5056191;28;20191;-72
2023/03/19 03:33:33;;;;;;;15.43;13.43;;;9.00;99.90;;;8.46;83.62;100624.63;5055730;28;20570;-73
2023/03/19 03:36:05;;;;;;;15.83;13.60;;;9.00;99.90;;;8.41;84.23;100624.25;5055926;28;20305;-72
2023/03/19 03:38:38;;;;;;;15.60;14.03;;;9.00;99.90;;;8.41;84.23;100621.56;5056436;28;20229;-72
2023/03/19 03:41:10;;;;;;;16.50;13.77;;;9.00;99.90;;;8.39;84.12;100617.38;5055971;28;20198;-72
2023/03/19 03:43:44;;;;;;;14.93;13.37;;;9.00;99.90;;;8.31;84.97;100620.78;5055869;28;20198;-72
2023/03/19 03:46:16;;;;;;;17.07;14.03;;;8.90;99.90;;;8.27;84.32;100619.38;5055878;28;20194;-72
2023/03/19 03:48:50;;;;;;;14.67;13.13;;;8.90;99.90;;;8.22;84.69;100626.97;5055500;28;20626;-72
2023/03/19 03:51:21;;;;;;;15.10;13.20;;;8.80;99.90;;;8.20;84.49;100626.28;5055721;28;20194;-72
2023/03/19 03:53:53;;;;;;;14.33;12.93;;;8.80;99.90;;;8.18;84.43;100615.75;5055620;28;20198;-72
2023/03/19 03:56:26;;;;;;;15.30;13.57;;;8.80;99.90;;;8.21;83.76;100617.31;5055616;28;20221;-72
2023/03/19 03:59:00;;;;;;;13.00;11.77;;;8.80;99.90;;;8.24;83.39;100630.34;5055500;28;20214;-72
2023/03/19 04:01:31;;;;;;;13.10;11.70;;;8.90;99.90;;;8.22;82.26;100624.28;5055570;28;20187;-72
2023/03/19 04:04:03;;;;;;;12.67;11.37;;;8.80;99.90;;;8.16;83.12;100625.75;5054304;28;20198;-72
2023/03/19 04:06:35;;;;;;;16.07;12.53;;;8.70;99.90;;;8.12;82.97;100624.34;5055466;28;20194;-72
2023/03/19 04:09:08;;;;;;;13.23;11.83;;;8.70;99.90;;;8.10;83.63;100633.50;5055465;28;20198;-73
2023/03/19 04:11:41;;;;;;;13.73;12.33;;;8.70;99.90;;;8.06;83.98;100624.09;5055380;28;20194;-72
2023/03/19 04:14:15;;;;;;;12.80;11.50;;;8.60;99.90;;;8.12;83.40;100639.50;5055284;28;20237;-73
2023/03/19 04:16:47;;;;;;;12.37;11.27;;;8.70;99.90;;;8.11;81.97;100629.84;5054931;28;20210;-73
2023/03/19 04:19:19;;;;;;;12.27;10.67;;;8.70;99.90;;;8.13;82.12;100622.53;5054870;28;20211;-72
2023/03/19 04:21:51;;;;;;;11.87;10.67;;;8.70;99.90;;;8.12;81.62;100623.50;5055204;28;20219;-72
2023/03/19 04:24:22;;;;;;;13.13;11.73;;;8.70;99.90;;;8.02;82.40;100623.56;5054765;28;20706;-72
2023/03/19 04:26:54;;;;;;;12.80;11.43;;;8.60;99.90;;;8.00;81.83;100624.69;5055147;28;20191;-72
2023/03/19 04:29:27;;;;;;;13.00;11.30;;;8.70;99.90;;;7.93;82.41;100628.94;5055013;28;20194;-72
2023/03/19 04:31:59;;;;;;;12.13;10.93;;;8.50;99.90;;;7.89;82.47;100622.19;5055034;28;20194;-72
2023/03/19 04:34:31;;;;;;;13.37;11.97;;;8.50;99.90;;;7.81;82.36;100636.25;5054821;28;20229;-73
2023/03/19 04:37:03;;;;;;;13.27;11.97;;;8.40;99.90;;;7.87;82.72;100624.19;5054883;28;20191;-73
2023/03/19 04:39:35;;;;;;;13.30;11.90;;;8.40;99.90;;;7.79;82.83;100621.41;5054670;28;20642;-73
2023/03/19 04:42:07;;;;;;;12.70;11.40;;;8.40;99.90;;;7.79;82.19;100624.91;5054976;28;20194;-73
2023/03/19 04:44:40;;;;;;;13.17;11.73;;;8.40;99.90;;;7.72;81.61;100620.28;5054830;28;20232;-73
2023/03/19 04:47:12;;;;;;;13.23;11.97;;;8.30;99.90;;;7.76;81.85;100622.53;5054534;28;20535;-72
2023/03/19 04:49:44;;;;;;;13.10;11.87;;;8.40;99.90;;;7.74;82.57;100624.47;5054812;28;20234;-72
2023/03/19 04:52:16;;;;;;;13.40;12.00;;;8.30;99.90;;;7.64;82.58;100629.84;5054730;28;20195;-73
2023/03/19 04:54:48;;;;;;;13.33;11.97;;;8.30;99.90;;;7.57;82.96;100634.06;5054589;28;20230;-73
2023/03/19 04:57:20;;;;;;;14.40;12.87;;;8.20;99.90;;;7.56;83.13;100627.09;5054587;28;20197;-73
2023/03/19 04:59:53;;;;;;;14.23;12.83;;;8.20;99.90;;;7.52;83.29;100620.34;5054592;28;20191;-73
2023/03/19 05:02:25;;;;;;;14.10;12.73;;;8.10;99.90;;;7.47;83.76;100622.59;5054234;28;20195;-73
2023/03/19 05:04:57;;;;;;;13.93;12.60;;;8.10;99.90;;;7.47;83.88;100625.25;5054116;28;20702;-73
2023/03/19 05:07:29;;;;;;;13.57;12.17;;;8.10;99.90;;;7.42;83.17;100630.19;5054132;28;20635;-73
2023/03/19 05:10:01;;;;;;;15.50;13.90;;;8.00;99.90;;;7.49;84.05;100625.97;5054091;28;20761;-73
2023/03/19 05:12:33;;;;;;;15.13;12.77;;;8.10;99.90;;;7.51;85.06;100618.66;5054363;28;20195;-72
2023/03/19 05:15:08;;;;;;;16.10;13.10;;;8.10;99.90;;;7.54;83.96;100622.84;5053817;28;20230;-72
2023/03/19 05:17:40;;;;;;;15.80;13.07;;;8.20;99.90;;;7.56;84.66;100626.25;5054182;28;20186;-72
2023/03/19 05:20:14;;;;;;;13.97;12.57;;;8.20;99.90;;;7.64;83.86;100632.50;5054218;28;20273;-73
2023/03/19 05:22:46;;;;;;;13.97;12.60;;;8.30;99.90;;;7.63;83.62;100630.84;5054182;28;20243;-73
2023/03/19 05:25:20;;;;;;;15.00;13.40;;;8.30;99.90;;;7.59;85.16;100626.78;5054022;28;20626;-73
2023/03/19 05:27:51;;;;;;;15.70;14.07;;;8.20;99.90;;;7.60;85.35;100632.97;5053930;28;20191;-73
2023/03/19 05:30:25;;;;;;;15.60;13.57;;;8.30;99.90;;;7.62;85.90;100631.00;5053618;28;20190;-73
2023/03/19 05:32:59;;;;;;;16.83;15.00;;;8.30;99.90;;;7.64;86.91;100645.00;5053533;28;20650;-73
2023/03/19 05:35:32;;;;;;;15.93;14.33;;;8.30;99.90;;;7.59;86.03;100642.78;5053750;28;20226;-73
2023/03/19 05:38:04;;;;;;;16.73;15.13;;;8.20;99.90;;;7.58;86.35;100641.09;5053696;28;20210;-73
2023/03/19 05:40:35;;;;;;;16.10;14.50;;;8.20;99.90;;;7.55;86.29;100638.72;5053432;28;20202;-73
2023/03/19 05:43:08;;;;;;;14.87;13.40;;;8.20;99.90;;;7.56;86.82;100645.72;5053724;28;20209;-73
2023/03/19 05:45:42;;;;;;;16.00;14.47;;;8.20;99.90;;;7.59;87.01;100641.94;5053214;28;20272;-73
2023/03/19 05:48:14;;;;;;;15.43;13.83;;;8.20;99.90;;;7.59;87.14;100653.44;5053591;28;20231;-73
2023/03/19 05:50:46;;;;;;;15.37;13.77;;;8.20;99.90;;;7.59;86.93;100657.91;5053491;28;20191;-73
2023/03/19 05:53:19;;;;;;;16.40;13.67;;;8.20;99.90;;;7.59;86.90;100648.09;5053469;28;20252;-73
2023/03/19 05:55:50;;;;;;;15.83;14.23;;;8.20;99.90;;;7.58;86.98;100654.41;5053095;28;20228;-73
2023/03/19 05:58:22;;;;;;;17.77;16.00;;;8.20;99.90;;;7.58;87.35;100646.41;5053079;28;20244;-72
2023/03/19 06:00:59;;;;;;;17.03;15.43;;;8.20;99.90;;;7.60;87.38;100644.44;5053078;28;20197;-72
2023/03/19 06:03:31;;;;;;;16.30;14.70;;;8.30;99.90;;;7.63;87.36;100649.50;5053372;28;20190;-72
2023/03/19 06:06:03;;;;;;;15.20;13.60;;;8.30;99.90;;;7.63;87.23;100660.16;5054237;28;20236;-73
2023/03/19 06:08:35;;;;;;;14.70;13.37;;;8.30;99.90;;;7.65;87.27;100662.66;5052932;28;20191;-73
2023/03/19 06:11:07;;;;;;;15.20;12.93;;;8.30;99.90;;;7.63;87.12;100652.16;5053235;28;20198;-73
2023/03/19 06:13:39;;;;;;;18.13;14.57;;;8.30;99.90;;;7.65;87.56;100655.53;5053227;28;20194;-73
2023/03/19 06:16:13;;;;;;;15.37;13.87;;;8.30;99.90;;;7.65;87.15;100652.84;5052883;28;20233;-73
2023/03/19 06:18:46;;;;;;;15.67;14.07;;;8.30;99.90;;;7.65;88.01;100660.84;5052861;28;20724;-73
2023/03/19 06:21:17;;;;;;;13.70;11.93;;;8.30;99.90;;;7.66;87.58;100659.03;5053194;28;20190;-73
2023/03/19 06:23:50;;;;;;;16.03;14.37;;;8.30;99.90;;;7.70;87.63;100654.25;5052868;28;20716;-73
2023/03/19 06:26:22;;;;;;;15.10;13.60;;;8.40;99.90;;;7.71;87.63;100654.09;5053077;28;20198;-73
2023/03/19 06:28:54;;;;;;;17.23;14.93;;;8.40;99.90;;;7.76;88.06;100653.66;5056777;28;20186;-73
2023/03/19 06:31:27;;;;;;;17.93;16.23;;;8.40;99.90;;;7.78;88.49;100657.88;5057223;28;20209;-72
2023/03/19 06:34:00;;;;;;;18.67;16.67;;;8.50;99.90;;;7.82;88.28;100658.41;5057080;28;20193;-72
2023/03/19 06:36:31;;;;;;;17.90;16.20;;;8.50;99.90;;;7.85;88.67;100666.13;5057149;28;20209;-73
2023/03/19 06:39:03;;;;;;;15.87;14.27;;;8.50;99.90;;;7.87;88.47;100666.84;5056652;28;20602;-73
2023/03/19 06:41:35;;;;;;;17.33;15.53;;;8.50;99.90;;;7.89;89.13;100671.03;5057047;28;20194;-72
2023/03/19 06:44:07;;;;;;;17.77;15.90;;;8.60;99.90;;;7.91;88.62;100665.56;5056637;28;20202;-72
2023/03/19 06:46:41;;;;;;;19.60;16.33;;;8.60;99.90;;;7.94;89.90;100670.59;5056955;28;20194;-72
2023/03/19 06:49:12;;;;;;;17.73;15.83;;;8.60;99.90;;;7.96;89.74;100676.63;5056525;28;20654;-72
2023/03/19 06:51:44;;;;;;;18.30;16.10;;;8.70;99.90;;;7.99;89.48;100684.31;5056890;28;20186;-73
2023/03/19 06:54:16;;;;;;;23.03;19.83;;;8.70;99.90;;;8.00;89.78;100689.53;5056793;28;20222;-72
2023/03/19 06:56:48;;;;;;;19.83;17.73;;;8.70;99.90;;;8.04;89.53;100692.75;5056445;28;20205;-73
2023/03/19 06:59:20;;;;;;;19.30;17.17;;;8.80;99.90;;;8.07;90.09;100700.44;5056665;28;20210;-73
2023/03/19 07:01:53;;;;;;;18.77;16.63;;;8.70;99.90;;;8.10;90.19;100700.16;5056318;28;20553;-73
2023/03/19 07:04:24;;;;;;;20.67;17.07;;;8.80;99.90;;;8.11;90.12;100702.69;5056588;28;20272;-73
2023/03/19 07:06:57;;;;;;;22.00;17.90;;;8.80;99.90;;;8.12;90.66;100712.34;5056612;28;20263;-73
2023/03/19 07:09:29;;;;;;;18.77;16.30;;;8.80;99.90;;;8.13;90.41;100718.53;5056844;28;20193;-73
2023/03/19 07:12:01;;;;;;;22.63;18.90;;;8.80;99.90;;;8.15;90.20;100720.06;5056204;28;20578;-73
2023/03/19 07:14:32;;;;;;;32.30;23.73;;;8.90;99.90;;;8.19;90.49;100717.94;5056321;28;20230;-73
2023/03/19 07:17:05;;;;;;;18.23;15.47;;;8.90;99.90;;;8.22;90.60;100722.16;5056043;28;20225;-73
2023/03/19 07:19:40;;;;;;;15.23;12.67;;;8.90;99.90;;;8.23;90.38;100722.00;5055892;28;20568;-73
2023/03/19 07:22:13;;;;;;;16.60;14.90;;;9.00;99.90;;;8.25;90.69;100720.03;5055978;28;20619;-73
2023/03/19 07:24:46;;;;;;;22.97;17.37;;;9.00;99.90;;;8.28;90.65;100725.13;5055856;28;20237;-73
2023/03/19 07:27:18;;;;;;;19.40;15.33;;;9.00;99.90;;;8.31;90.26;100724.81;5056259;28;20194;-73
2023/03/19 07:29:50;;;;;;;14.23;12.20;;;9.00;99.90;;;8.34;90.24;100721.84;5055881;28;20563;-73
2023/03/19 07:32:23;;;;;;;19.03;14.37;;;9.10;99.90;;;8.38;90.67;100720.59;5056147;28;20196;-73
2023/03/19 07:34:55;;;;;;;19.67;16.63;;;9.10;99.90;;;8.41;90.95;100736.28;5055977;28;20226;-73
2023/03/19 07:37:27;;;;;;;24.73;18.47;;;9.10;99.90;;;8.44;91.12;100736.00;5056009;28;20186;-73
2023/03/19 07:39:59;;;;;;;21.83;16.33;;;9.20;99.90;;;8.47;91.56;100741.03;5055804;28;20214;-73
2023/03/19 07:42:31;;;;;;;17.77;14.67;;;9.20;99.90;;;8.50;91.18;100735.41;5055600;28;20536;-73
2023/03/19 07:45:03;;;;;;;19.13;14.20;;;9.20;99.90;;;8.54;92.00;100738.63;5055797;28;20245;-73
2023/03/19 07:47:36;;;;;;;17.03;14.17;;;9.30;99.90;;;8.55;92.46;100738.47;5055472;28;20670;-73
2023/03/19 07:50:10;;;;;;;20.30;13.87;;;9.30;99.90;;;8.57;91.85;100741.84;5055747;28;20194;-73
2023/03/19 07:52:44;;;;;;;15.37;12.60;;;9.30;99.90;;;8.58;91.71;100737.34;5055691;28;20189;-73
2023/03/19 07:55:16;;;;;;;11.40;10.40;;;9.30;99.90;;;8.60;92.15;100746.88;5055631;28;20233;-73
2023/03/19 07:57:48;;;;;;;11.57;10.30;;;9.30;99.90;;;8.63;92.51;100746.56;5055601;28;20209;-73
2023/03/19 08:00:21;;;;;;;12.07;9.70;;;9.40;99.90;;;8.64;92.49;100748.25;5055996;28;20218;-73
2023/03/19 08:02:54;;;;;;;10.40;9.23;;;9.40;99.90;;;8.65;91.60;100749.94;5055673;28;20197;-73
2023/03/19 08:05:26;;;;;;;15.93;11.80;;;9.40;99.90;;;8.71;91.93;100761.00;5055651;28;20230;-73
2023/03/19 08:07:58;;;;;;;12.90;9.63;;;9.40;99.90;;;8.75;91.99;100749.06;5055625;28;20205;-73
2023/03/19 08:10:30;;;;;;;9.33;8.40;;;9.50;99.90;;;8.76;91.86;100751.59;5055556;28;20190;-73
2023/03/19 08:13:03;;;;;;;12.87;7.67;;;9.50;99.90;;;8.79;91.73;100750.44;5055567;28;20226;-73
2023/03/19 08:15:36;;;;;;;9.50;8.53;;;9.50;99.90;;;8.82;91.55;100756.31;5055217;28;20236;-73
2023/03/19 08:18:09;;;;;;;10.90;8.93;;;9.60;99.90;;;8.85;91.79;100753.34;5055452;28;20195;-73
2023/03/19 08:20:41;;;;;;;9.27;8.13;;;9.60;99.90;;;8.88;92.28;100755.72;5055345;28;20206;-73
2023/03/19 08:23:13;;;;;;;8.80;8.00;;;9.60;99.90;;;8.92;92.46;100756.28;5055303;28;20190;-73
2023/03/19 08:25:45;;;;;;;10.57;7.20;;;9.70;99.90;;;8.93;91.78;100760.63;5055205;28;20233;-73
2023/03/19 08:28:17;;;;;;;9.33;8.30;;;9.60;99.90;;;8.95;92.16;100755.97;5055033;28;20192;-73
2023/03/19 08:30:49;;;;;;;10.53;7.87;;;9.70;99.90;;;8.99;92.14;100752.00;5055249;28;20190;-73
2023/03/19 08:33:22;;;;;;;9.87;7.50;;;9.70;99.90;;;9.03;91.90;100756.06;5054795;28;20665;-73
2023/03/19 08:35:54;;;;;;;8.43;7.00;;;9.80;99.90;;;9.05;92.13;100752.25;5055008;28;20233;-73
2023/03/19 08:38:26;;;;;;;11.50;7.60;;;9.80;99.90;;;9.09;92.02;100753.63;5055046;28;20289;-73
2023/03/19 08:41:02;;;;;;;10.20;7.30;;;9.80;99.90;;;9.13;91.97;100754.19;5054935;28;20214;-73
2023/03/19 08:43:36;;;;;;;7.33;6.63;;;9.90;99.90;;;9.18;91.85;100746.53;5054947;28;20252;-73
2023/03/19 08:46:09;;;;;;;8.73;6.27;;;9.90;99.90;;;9.24;92.40;100751.28;5054904;28;20230;-73
2023/03/19 08:48:42;;;;;;;8.70;6.07;;;9.90;99.90;;;9.25;92.20;100744.94;5054840;28;20198;-73
2023/03/19 08:51:14;;;;;;;7.10;6.37;;;10.00;99.90;;;9.33;92.51;100745.03;5054231;28;20186;-73
2023/03/19 08:53:45;;;;;;;7.43;6.27;;;10.10;99.90;;;9.40;92.25;100746.09;5054704;28;20186;-73
2023/03/19 08:56:17;;;;;;;7.40;6.20;;;10.10;99.90;;;9.50;92.45;100754.03;5054439;28;20560;-73
2023/03/19 08:58:49;;;;;;;8.13;6.50;;;10.20;99.90;;;9.63;92.94;100751.81;5054694;28;20191;-73
2023/03/19 09:01:22;;;;;;;8.73;6.67;;;10.40;99.90;;;9.75;92.45;100755.94;5054219;28;20221;-73
2023/03/19 09:03:55;;;;;;;6.83;5.43;;;10.50;99.90;;;9.93;92.18;100751.38;5054363;28;20190;-71
2023/03/19 09:06:27;;;;;;;8.70;5.40;;;10.70;99.90;;;10.00;91.88;100755.13;5054345;28;20198;-72
2023/03/19 09:08:59;;;;;;;11.10;6.17;;;10.80;99.90;;;10.03;91.48;100760.16;5054242;28;20198;-72
2023/03/19 09:11:32;;;;;;;8.47;7.60;;;10.80;99.90;;;10.07;91.12;100758.00;5054369;28;20191;-73
2023/03/19 09:14:06;;;;;;;8.03;5.50;;;10.80;99.90;;;10.14;90.85;100764.44;5054409;28;20256;-73
2023/03/19 09:16:37;;;;;;;6.50;5.33;;;10.90;99.90;;;10.20;90.90;100774.53;5053993;28;20210;-73
2023/03/19 09:19:11;;;;;;;7.20;5.03;;;10.90;99.90;;;10.29;90.61;100765.56;5054258;28;20191;-73
2023/03/19 09:21:43;;;;;;;5.87;4.90;;;11.00;99.90;;;10.32;90.51;100765.25;5054215;28;20211;-73
2023/03/19 09:24:15;;;;;;;6.40;4.83;;;11.10;99.90;;;10.34;90.04;100768.63;5054139;28;20222;-73
2023/03/19 09:26:48;;;;;;;7.17;4.27;;;11.10;99.90;;;10.36;89.81;100771.97;5054175;28;20194;-73
2023/03/19 09:29:22;;;;;;;5.93;4.30;;;11.10;99.90;;;10.41;89.88;100768.81;5053893;28;20643;-73
2023/03/19 09:31:54;;;;;;;5.60;4.60;;;11.10;99.90;;;10.45;90.11;100768.31;5054080;28;20190;-73
2023/03/19 09:34:27;;;;;;;5.03;4.53;;;11.20;99.90;;;10.50;90.05;100771.38;5053978;28;20237;-73
2023/03/19 09:37:01;;;;;;;5.90;4.17;;;11.30;99.90;;;10.58;90.10;100774.06;5054044;28;20199;-73
2023/03/19 09:39:33;;;;;;;7.33;4.20;;;11.30;99.90;;;10.76;89.42;100773.16;5053625;28;20642;-73
2023/03/19 09:42:19;;;;;;;5.43;4.00;;;11.50;99.90;;;10.85;88.84;100772.22;5053791;28;20213;-73
2023/03/19 09:44:54;;;;;;;4.70;3.90;;;11.60;99.90;;;10.90;89.15;100769.88;5053777;28;20226;-73
2023/03/19 09:47:32;;;;;;;4.23;3.70;;;11.70;99.90;;;11.06;89.38;100764.59;5053729;28;20193;-73
2023/03/19 09:50:12;;;;;;;7.23;3.43;;;11.80;99.90;;;11.25;88.50;100764.31;5054287;28;20197;-73
2023/03/19 09:52:51;;;;;;;4.73;2.40;;;12.00;99.90;;;11.43;87.68;100761.50;5053675;28;20194;-73
2023/03/19 09:55:47;;;;;;;2.57;2.37;;;12.20;99.90;;;11.52;86.26;100766.69;5053621;28;20276;-73
2023/03/19 09:58:24;;;;;;;2.77;2.40;;;12.30;99.90;;;11.63;86.33;100763.69;5053709;28;20190;-73
2023/03/19 10:00:59;;;;;;;3.10;2.20;;;12.40;99.90;;;11.79;85.30;100770.09;5053178;28;20213;-73
2023/03/19 10:03:55;;;;;;;1.93;1.77;;;12.50;99.90;;;11.90;84.06;100764.41;5052898;28;20196;-73
2023/03/19 10:06:36;;;;;;;2.00;1.80;;;12.70;99.90;;;11.98;83.73;100777.81;5053278;28;20194;-74
2023/03/19 10:09:26;;;;;;;2.97;2.00;;;12.70;99.90;;;12.08;83.46;100773.13;5054394;28;20229;-74
2023/03/19 10:12:17;;;;;;;3.47;1.70;;;12.80;99.90;;;12.08;83.04;100773.13;5053513;28;20190;-73
2023/03/19 10:15:21;;;;;;;3.77;2.10;;;12.80;99.90;;;12.22;81.76;100775.13;5053305;28;20230;-73
2023/03/19 10:18:04;;;;;;;2.30;2.10;;;12.90;99.90;;;12.46;79.86;100775.06;5033920;28;20217;-73
2023/03/19 10:20:46;;;;;;;2.57;2.33;;;13.10;99.90;;;12.85;79.35;100771.56;5053270;28;20577;-73
2023/03/19 10:23:43;;;;;;;3.37;2.57;;;13.40;99.90;;;13.04;77.61;100780.06;5053369;28;20201;-72
2023/03/19 10:26:20;;;;;;;2.63;2.43;;;13.60;99.90;;;13.16;76.00;100770.63;5053136;28;20230;-73
2023/03/19 10:29:11;;;;;;;2.80;2.13;;;13.80;99.90;;;13.24;73.69;100769.75;5053319;28;20190;-73
2023/03/19 10:32:00;;;;;;;2.93;2.20;;;13.80;98.80;;;13.17;74.10;100772.28;5053232;28;20190;-72
2023/03/19 10:34:36;;;;;;;4.70;2.30;;;13.80;99.00;;;13.25;73.75;100768.72;5053191;28;20272;-72
2023/03/19 10:37:19;;;;;;;2.67;2.43;;;13.90;98.50;;;13.25;73.93;100774.13;5053221;28;20186;-72
2023/03/19 10:39:56;;;;;;;2.83;1.93;;;13.90;98.80;;;13.40;72.83;100763.41;5053289;28;20206;-73